sensor_id;sensor_type;location;lat;lon;timestamp;P1;durP1;ratioP1;P2;durP2;ratioP2
81209;SDS011;70685;52.496;13.420;2023-09-12T00:01:21;25.42;;;16.13;;
81209;SDS011;70685;52.496;13.420;2023-09-12T00:03:47;18.40;;;15.18;;
81209;SDS011;70685;52.496;13.420;2023-09-12T00:06:14;24.10;;;20.30;;
81209;SDS011;70685;52.496;13.420;2023-09-12T00:08:40;18.42;;;14.90;;
81209;SDS011;70685;52.496;13.420;2023-09-12T00:11:07;24.45;;;15.00;;
81209;SDS011;70685;52.496;13.420;2023-09-12T00:13:37;19.70;;;14.15;;
81209;SDS011;70685;52.496;13.420;2023-09-12T00:16:03;21.25;;;12.43;;
81209;SDS011;70685;52.496;13.420;2023-09-12T00:18:30;14.65;;;12.07;;
81209;SDS011;70685;52.496;13.420;2023-09-12T00:20:56;19.02;;;11.18;;
81209;SDS011;70685;52.496;13.420;2023-09-12T00:23:27;13.48;;;10.50;;
81209;SDS011;70685;52.496;13.420;2023-09-12T00:25:53;13.63;;;11.68;;
81209;SDS011;70685;52.496;13.420;2023-09-12T00:28:19;19.15;;;11.07;;
81209;SDS011;70685;52.496;13.420;2023-09-12T00:30:45;11.90;;;10.70;;
81209;SDS011;70685;52.496;13.420;2023-09-12T00:33:11;12.00;;;10.43;;
81209;SDS011;70685;52.496;13.420;2023-09-12T00:35:39;12.30;;;11.05;;
81209;SDS011;70685;52.496;13.420;2023-09-12T00:38:08;11.50;;;10.30;;
81209;SDS011;70685;52.496;13.420;2023-09-12T00:40:36;12.40;;;11.07;;
81209;SDS011;70685;52.496;13.420;2023-09-12T00:43:03;20.17;;;11.20;;
81209;SDS011;70685;52.496;13.420;2023-09-12T00:45:29;14.75;;;10.48;;
81209;SDS011;70685;52.496;13.420;2023-09-12T00:47:54;11.15;;;10.13;;
81209;SDS011;70685;52.496;13.420;2023-09-12T00:50:23;17.17;;;11.35;;
81209;SDS011;70685;52.496;13.420;2023-09-12T00:52:53;15.55;;;11.48;;
81209;SDS011;70685;52.496;13.420;2023-09-12T00:55:19;12.55;;;10.80;;
81209;SDS011;70685;52.496;13.420;2023-09-12T00:57:45;13.70;;;12.18;;
81209;SDS011;70685;52.496;13.420;2023-09-12T01:02:41;13.13;;;11.52;;
81209;SDS011;70685;52.496;13.420;2023-09-12T01:05:08;14.10;;;10.23;;
81209;SDS011;70685;52.496;13.420;2023-09-12T01:07:38;18.00;;;12.43;;
81209;SDS011;70685;52.496;13.420;2023-09-12T01:10:08;13.60;;;10.88;;
81209;SDS011;70685;52.496;13.420;2023-09-12T01:12:34;10.82;;;9.82;;
81209;SDS011;70685;52.496;13.420;2023-09-12T01:15:03;15.88;;;10.75;;
81209;SDS011;70685;52.496;13.420;2023-09-12T01:17:38;14.70;;;10.52;;
81209;SDS011;70685;52.496;13.420;2023-09-12T01:20:11;12.52;;;10.98;;
81209;SDS011;70685;52.496;13.420;2023-09-12T01:27:42;11.57;;;10.38;;
81209;SDS011;70685;52.496;13.420;2023-09-12T01:30:14;12.75;;;11.32;;
81209;SDS011;70685;52.496;13.420;2023-09-12T01:32:46;11.48;;;10.38;;
81209;SDS011;70685;52.496;13.420;2023-09-12T01:35:12;12.82;;;11.48;;
81209;SDS011;70685;52.496;13.420;2023-09-12T01:37:40;14.80;;;10.33;;
81209;SDS011;70685;52.496;13.420;2023-09-12T01:40:06;11.77;;;10.57;;
81209;SDS011;70685;52.496;13.420;2023-09-12T01:42:36;12.30;;;10.07;;
81209;SDS011;70685;52.496;13.420;2023-09-12T01:45:08;11.15;;;10.15;;
81209;SDS011;70685;52.496;13.420;2023-09-12T01:47:36;15.20;;;9.73;;
81209;SDS011;70685;52.496;13.420;2023-09-12T01:50:03;10.57;;;9.57;;
81209;SDS011;70685;52.496;13.420;2023-09-12T01:52:31;15.55;;;9.93;;
81209;SDS011;70685;52.496;13.420;2023-09-12T01:55:03;11.98;;;10.88;;
81209;SDS011;70685;52.496;13.420;2023-09-12T01:57:29;11.68;;;10.63;;
81209;SDS011;70685;52.496;13.420;2023-09-12T02:02:24;12.50;;;8.88;;
81209;SDS011;70685;52.496;13.420;2023-09-12T02:05:05;10.10;;;9.20;;
81209;SDS011;70685;52.496;13.420;2023-09-12T02:07:39;11.10;;;10.20;;
81209;SDS011;70685;52.496;13.420;2023-09-12T02:10:06;11.77;;;10.27;;
81209;SDS011;70685;52.496;13.420;2023-09-12T02:12:32;11.88;;;9.05;;
81209;SDS011;70685;52.496;13.420;2023-09-12T02:14:57;10.32;;;9.27;;
81209;SDS011;70685;52.496;13.420;2023-09-12T02:17:25;12.63;;;9.95;;
81209;SDS011;70685;52.496;13.420;2023-09-12T02:19:55;10.80;;;9.85;;
81209;SDS011;70685;52.496;13.420;2023-09-12T02:22:21;10.93;;;10.02;;
81209;SDS011;70685;52.496;13.420;2023-09-12T02:24:46;13.32;;;9.80;;
81209;SDS011;70685;52.496;13.420;2023-09-12T02:27:12;19.15;;;10.02;;
81209;SDS011;70685;52.496;13.420;2023-09-12T02:29:40;13.63;;;10.23;;
81209;SDS011;70685;52.496;13.420;2023-09-12T02:32:12;16.42;;;11.20;;
81209;SDS011;70685;52.496;13.420;2023-09-12T02:34:42;11.48;;;10.05;;
81209;SDS011;70685;52.496;13.420;2023-09-12T02:37:07;10.30;;;9.27;;
81209;SDS011;70685;52.496;13.420;2023-09-12T02:39:36;11.73;;;10.60;;
81209;SDS011;70685;52.496;13.420;2023-09-12T02:42:01;11.80;;;10.23;;
81209;SDS011;70685;52.496;13.420;2023-09-12T02:44:29;12.20;;;10.85;;
81209;SDS011;70685;52.496;13.420;2023-09-12T02:46:57;13.07;;;11.77;;
81209;SDS011;70685;52.496;13.420;2023-09-12T02:49:25;14.50;;;12.93;;
81209;SDS011;70685;52.496;13.420;2023-09-12T02:51:51;17.65;;;12.77;;
81209;SDS011;70685;52.496;13.420;2023-09-12T02:54:17;14.82;;;11.88;;
81209;SDS011;70685;52.496;13.420;2023-09-12T02:56:44;17.42;;;12.07;;
81209;SDS011;70685;52.496;13.420;2023-09-12T02:59:12;14.98;;;12.35;;
81209;SDS011;70685;52.496;13.420;2023-09-12T03:01:38;18.92;;;13.38;;
81209;SDS011;70685;52.496;13.420;2023-09-12T03:04:06;15.57;;;12.20;;
81209;SDS011;70685;52.496;13.420;2023-09-12T03:06:36;14.23;;;12.73;;
81209;SDS011;70685;52.496;13.420;2023-09-12T03:09:04;13.52;;;12.10;;
81209;SDS011;70685;52.496;13.420;2023-09-12T03:11:32;17.35;;;12.40;;
81209;SDS011;70685;52.496;13.420;2023-09-12T03:13:58;14.55;;;12.45;;
81209;SDS011;70685;52.496;13.420;2023-09-12T03:16:23;13.90;;;12.52;;
81209;SDS011;70685;52.496;13.420;2023-09-12T03:18:52;14.73;;;12.45;;
81209;SDS011;70685;52.496;13.420;2023-09-12T03:21:17;13.37;;;12.13;;
81209;SDS011;70685;52.496;13.420;2023-09-12T03:23:48;14.43;;;12.98;;
81209;SDS011;70685;52.496;13.420;2023-09-12T03:26:14;14.18;;;12.20;;
81209;SDS011;70685;52.496;13.420;2023-09-12T03:28:39;14.63;;;12.15;;
81209;SDS011;70685;52.496;13.420;2023-09-12T03:31:11;13.40;;;12.02;;
81209;SDS011;70685;52.496;13.420;2023-09-12T03:33:42;13.88;;;12.40;;
81209;SDS011;70685;52.496;13.420;2023-09-12T03:36:14;12.98;;;11.88;;
81209;SDS011;70685;52.496;13.420;2023-09-12T03:38:40;13.02;;;11.73;;
81209;SDS011;70685;52.496;13.420;2023-09-12T03:41:06;15.73;;;12.55;;
81209;SDS011;70685;52.496;13.420;2023-09-12T03:43:34;14.48;;;12.98;;
81209;SDS011;70685;52.496;13.420;2023-09-12T03:46:01;12.82;;;11.63;;
81209;SDS011;70685;52.496;13.420;2023-09-12T03:48:29;16.15;;;12.88;;
81209;SDS011;70685;52.496;13.420;2023-09-12T03:51:01;13.95;;;12.50;;
81209;SDS011;70685;52.496;13.420;2023-09-12T03:53:29;20.63;;;13.02;;
81209;SDS011;70685;52.496;13.420;2023-09-12T03:55:57;14.60;;;13.18;;
81209;SDS011;70685;52.496;13.420;2023-09-12T03:58:27;16.25;;;12.60;;
81209;SDS011;70685;52.496;13.420;2023-09-12T04:00:56;14.40;;;12.75;;
81209;SDS011;70685;52.496;13.420;2023-09-12T04:03:21;16.92;;;12.10;;
81209;SDS011;70685;52.496;13.420;2023-09-12T04:05:47;15.75;;;12.05;;
81209;SDS011;70685;52.496;13.420;2023-09-12T04:08:13;14.45;;;12.63;;
81209;SDS011;70685;52.496;13.420;2023-09-12T04:10:39;16.20;;;12.35;;
81209;SDS011;70685;52.496;13.420;2023-09-12T04:13:07;13.98;;;12.50;;
81209;SDS011;70685;52.496;13.420;2023-09-12T04:15:33;13.20;;;11.47;;
81209;SDS011;70685;52.496;13.420;2023-09-12T04:17:58;13.65;;;12.13;;
81209;SDS011;70685;52.496;13.420;2023-09-12T04:20:24;18.33;;;12.13;;
81209;SDS011;70685;52.496;13.420;2023-09-12T04:22:50;16.17;;;11.93;;
81209;SDS011;70685;52.496;13.420;2023-09-12T04:25:18;12.52;;;11.38;;
81209;SDS011;70685;52.496;13.420;2023-09-12T04:27:45;16.08;;;11.85;;
81209;SDS011;70685;52.496;13.420;2023-09-12T04:30:11;14.70;;;11.95;;
81209;SDS011;70685;52.496;13.420;2023-09-12T04:32:39;15.85;;;12.57;;
81209;SDS011;70685;52.496;13.420;2023-09-12T04:35:05;18.10;;;13.95;;
81209;SDS011;70685;52.496;13.420;2023-09-12T04:37:33;14.15;;;12.65;;
81209;SDS011;70685;52.496;13.420;2023-09-12T04:39:59;15.13;;;13.65;;
81209;SDS011;70685;52.496;13.420;2023-09-12T04:42:25;14.65;;;12.63;;
81209;SDS011;70685;52.496;13.420;2023-09-12T04:44:50;15.07;;;13.10;;
81209;SDS011;70685;52.496;13.420;2023-09-12T04:47:16;15.18;;;13.15;;
81209;SDS011;70685;52.496;13.420;2023-09-12T04:49:44;16.52;;;13.75;;
81209;SDS011;70685;52.496;13.420;2023-09-12T04:52:12;18.00;;;13.75;;
81209;SDS011;70685;52.496;13.420;2023-09-12T04:54:37;18.63;;;14.68;;
81209;SDS011;70685;52.496;13.420;2023-09-12T04:57:03;20.45;;;13.27;;
81209;SDS011;70685;52.496;13.420;2023-09-12T04:59:29;14.02;;;12.65;;
81209;SDS011;70685;52.496;13.420;2023-09-12T05:01:55;15.88;;;13.82;;
81209;SDS011;70685;52.496;13.420;2023-09-12T05:04:20;14.00;;;12.60;;
81209;SDS011;70685;52.496;13.420;2023-09-12T05:06:46;14.23;;;12.80;;
81209;SDS011;70685;52.496;13.420;2023-09-12T05:09:12;19.08;;;13.93;;
81209;SDS011;70685;52.496;13.420;2023-09-12T05:11:40;15.73;;;14.25;;
81209;SDS011;70685;52.496;13.420;2023-09-12T05:14:06;17.95;;;13.30;;
81209;SDS011;70685;52.496;13.420;2023-09-12T05:16:33;24.13;;;13.98;;
81209;SDS011;70685;52.496;13.420;2023-09-12T05:19:04;15.20;;;11.93;;
81209;SDS011;70685;52.496;13.420;2023-09-12T05:23:56;15.00;;;10.55;;
81209;SDS011;70685;52.496;13.420;2023-09-12T05:26:21;10.82;;;9.77;;
81209;SDS011;70685;52.496;13.420;2023-09-12T05:28:49;13.52;;;12.07;;
81209;SDS011;70685;52.496;13.420;2023-09-12T05:31:15;11.63;;;10.50;;
81209;SDS011;70685;52.496;13.420;2023-09-12T05:33:41;11.65;;;10.55;;
81209;SDS011;70685;52.496;13.420;2023-09-12T05:36:06;15.45;;;11.57;;
81209;SDS011;70685;52.496;13.420;2023-09-12T05:38:34;11.73;;;10.52;;
81209;SDS011;70685;52.496;13.420;2023-09-12T05:41:00;18.35;;;11.02;;
81209;SDS011;70685;52.496;13.420;2023-09-12T05:43:25;16.15;;;11.13;;
81209;SDS011;70685;52.496;13.420;2023-09-12T05:45:51;12.20;;;10.90;;
81209;SDS011;70685;52.496;13.420;2023-09-12T05:48:22;21.98;;;11.48;;
81209;SDS011;70685;52.496;13.420;2023-09-12T05:50:49;11.85;;;10.65;;
81209;SDS011;70685;52.496;13.420;2023-09-12T05:53:15;23.10;;;10.90;;
81209;SDS011;70685;52.496;13.420;2023-09-12T05:55:43;14.00;;;11.25;;
81209;SDS011;70685;52.496;13.420;2023-09-12T05:58:13;13.43;;;10.60;;
81209;SDS011;70685;52.496;13.420;2023-09-12T06:00:39;16.40;;;10.95;;
81209;SDS011;70685;52.496;13.420;2023-09-12T06:03:06;17.50;;;11.45;;
81209;SDS011;70685;52.496;13.420;2023-09-12T06:05:39;14.68;;;10.70;;
81209;SDS011;70685;52.496;13.420;2023-09-12T06:08:05;12.38;;;10.57;;
81209;SDS011;70685;52.496;13.420;2023-09-12T06:10:30;12.95;;;10.57;;
81209;SDS011;70685;52.496;13.420;2023-09-12T06:12:58;15.70;;;12.18;;
81209;SDS011;70685;52.496;13.420;2023-09-12T06:15:28;14.52;;;11.27;;
81209;SDS011;70685;52.496;13.420;2023-09-12T06:17:56;20.67;;;11.40;;
81209;SDS011;70685;52.496;13.420;2023-09-12T06:20:24;11.95;;;11.05;;
81209;SDS011;70685;52.496;13.420;2023-09-12T06:22:50;18.45;;;11.80;;
81209;SDS011;70685;52.496;13.420;2023-09-12T06:25:18;12.15;;;10.95;;
81209;SDS011;70685;52.496;13.420;2023-09-12T06:27:46;13.03;;;11.30;;
81209;SDS011;70685;52.496;13.420;2023-09-12T06:30:12;12.52;;;10.90;;
81209;SDS011;70685;52.496;13.420;2023-09-12T06:32:38;15.18;;;11.70;;
81209;SDS011;70685;52.496;13.420;2023-09-12T06:35:03;17.33;;;13.88;;
81209;SDS011;70685;52.496;13.420;2023-09-12T06:37:32;22.65;;;13.90;;
81209;SDS011;70685;52.496;13.420;2023-09-12T06:39:57;26.23;;;15.80;;
81209;SDS011;70685;52.496;13.420;2023-09-12T06:42:23;15.13;;;13.05;;
81209;SDS011;70685;52.496;13.420;2023-09-12T06:44:49;21.35;;;11.65;;
81209;SDS011;70685;52.496;13.420;2023-09-12T06:47:14;16.60;;;12.00;;
81209;SDS011;70685;52.496;13.420;2023-09-12T06:49:40;14.48;;;11.15;;
81209;SDS011;70685;52.496;13.420;2023-09-12T06:52:05;15.57;;;11.60;;
81209;SDS011;70685;52.496;13.420;2023-09-12T06:54:32;16.98;;;11.32;;
81209;SDS011;70685;52.496;13.420;2023-09-12T06:57:00;16.85;;;11.45;;
81209;SDS011;70685;52.496;13.420;2023-09-12T06:59:28;12.45;;;10.95;;
81209;SDS011;70685;52.496;13.420;2023-09-12T07:01:54;13.43;;;12.13;;
81209;SDS011;70685;52.496;13.420;2023-09-12T07:04:22;11.95;;;10.63;;
81209;SDS011;70685;52.496;13.420;2023-09-12T07:09:16;13.50;;;9.13;;
81209;SDS011;70685;52.496;13.420;2023-09-12T07:11:42;14.75;;;8.88;;
81209;SDS011;70685;52.496;13.420;2023-09-12T07:14:10;20.98;;;9.98;;
81209;SDS011;70685;52.496;13.420;2023-09-12T07:16:38;33.53;;;10.20;;
81209;SDS011;70685;52.496;13.420;2023-09-12T07:19:04;29.05;;;9.30;;
81209;SDS011;70685;52.496;13.420;2023-09-12T07:21:32;24.27;;;7.47;;
81209;SDS011;70685;52.496;13.420;2023-09-12T07:24:00;22.30;;;8.68;;
81209;SDS011;70685;52.496;13.420;2023-09-12T07:26:29;22.05;;;8.40;;
81209;SDS011;70685;52.496;13.420;2023-09-12T07:28:54;11.07;;;7.25;;
81209;SDS011;70685;52.496;13.420;2023-09-12T07:31:25;12.45;;;6.70;;
81209;SDS011;70685;52.496;13.420;2023-09-12T07:33:53;23.85;;;8.55;;
81209;SDS011;70685;52.496;13.420;2023-09-12T07:36:18;15.68;;;8.00;;
81209;SDS011;70685;52.496;13.420;2023-09-12T07:38:49;18.63;;;7.05;;
81209;SDS011;70685;52.496;13.420;2023-09-12T07:41:14;17.50;;;7.38;;
81209;SDS011;70685;52.496;13.420;2023-09-12T07:43:40;18.35;;;6.97;;
81209;SDS011;70685;52.496;13.420;2023-09-12T07:46:06;22.33;;;11.57;;
81209;SDS011;70685;52.496;13.420;2023-09-12T07:48:31;21.92;;;7.28;;
81209;SDS011;70685;52.496;13.420;2023-09-12T07:50:57;11.02;;;6.15;;
81209;SDS011;70685;52.496;13.420;2023-09-12T07:53:26;13.25;;;6.57;;
81209;SDS011;70685;52.496;13.420;2023-09-12T07:55:51;14.38;;;6.40;;
81209;SDS011;70685;52.496;13.420;2023-09-12T07:58:22;21.60;;;7.25;;
81209;SDS011;70685;52.496;13.420;2023-09-12T08:00:50;13.20;;;6.28;;
81209;SDS011;70685;52.496;13.420;2023-09-12T08:03:18;14.48;;;6.68;;
81209;SDS011;70685;52.496;13.420;2023-09-12T08:05:43;19.17;;;6.70;;
81209;SDS011;70685;52.496;13.420;2023-09-12T08:08:21;23.10;;;6.72;;
81209;SDS011;70685;52.496;13.420;2023-09-12T08:10:47;21.63;;;6.88;;
81209;SDS011;70685;52.496;13.420;2023-09-12T08:13:12;14.65;;;6.30;;
81209;SDS011;70685;52.496;13.420;2023-09-12T08:15:40;11.25;;;5.93;;
81209;SDS011;70685;52.496;13.420;2023-09-12T08:18:08;20.35;;;6.40;;
81209;SDS011;70685;52.496;13.420;2023-09-12T08:20:36;8.48;;;5.60;;
81209;SDS011;70685;52.496;13.420;2023-09-12T08:23:02;15.20;;;6.22;;
81209;SDS011;70685;52.496;13.420;2023-09-12T08:25:30;13.98;;;6.32;;
81209;SDS011;70685;52.496;13.420;2023-09-12T08:27:56;16.65;;;7.25;;
81209;SDS011;70685;52.496;13.420;2023-09-12T08:30:22;12.45;;;5.75;;
81209;SDS011;70685;52.496;13.420;2023-09-12T08:32:47;17.30;;;5.85;;
81209;SDS011;70685;52.496;13.420;2023-09-12T08:35:13;16.40;;;6.00;;
81209;SDS011;70685;52.496;13.420;2023-09-12T08:37:42;12.48;;;5.68;;
81209;SDS011;70685;52.496;13.420;2023-09-12T08:40:08;14.45;;;5.25;;
81209;SDS011;70685;52.496;13.420;2023-09-12T08:42:41;19.45;;;6.15;;
81209;SDS011;70685;52.496;13.420;2023-09-12T08:45:17;16.45;;;5.80;;
81209;SDS011;70685;52.496;13.420;2023-09-12T08:47:50;16.73;;;5.53;;
81209;SDS011;70685;52.496;13.420;2023-09-12T08:50:20;11.90;;;5.25;;
81209;SDS011;70685;52.496;13.420;2023-09-12T08:52:48;22.30;;;6.07;;
81209;SDS011;70685;52.496;13.420;2023-09-12T08:55:14;23.67;;;6.15;;
81209;SDS011;70685;52.496;13.420;2023-09-12T08:57:42;11.32;;;5.30;;
81209;SDS011;70685;52.496;13.420;2023-09-12T09:00:11;17.85;;;6.15;;
81209;SDS011;70685;52.496;13.420;2023-09-12T09:02:39;20.65;;;5.80;;
81209;SDS011;70685;52.496;13.420;2023-09-12T09:05:06;19.73;;;5.63;;
81209;SDS011;70685;52.496;13.420;2023-09-12T09:07:35;16.45;;;5.28;;
81209;SDS011;70685;52.496;13.420;2023-09-12T09:10:10;17.35;;;5.18;;
81209;SDS011;70685;52.496;13.420;2023-09-12T09:12:40;17.02;;;5.57;;
81209;SDS011;70685;52.496;13.420;2023-09-12T09:15:25;9.32;;;5.05;;
81209;SDS011;70685;52.496;13.420;2023-09-12T09:18:01;15.63;;;6.15;;
81209;SDS011;70685;52.496;13.420;2023-09-12T09:20:32;13.70;;;5.07;;
81209;SDS011;70685;52.496;13.420;2023-09-12T09:23:04;12.60;;;5.35;;
81209;SDS011;70685;52.496;13.420;2023-09-12T09:25:34;21.17;;;5.80;;
81209;SDS011;70685;52.496;13.420;2023-09-12T09:28:04;26.13;;;6.93;;
81209;SDS011;70685;52.496;13.420;2023-09-12T09:30:42;19.27;;;6.20;;
81209;SDS011;70685;52.496;13.420;2023-09-12T09:33:10;18.75;;;5.80;;
81209;SDS011;70685;52.496;13.420;2023-09-12T09:35:36;25.58;;;5.65;;
81209;SDS011;70685;52.496;13.420;2023-09-12T09:38:05;16.98;;;5.82;;
81209;SDS011;70685;52.496;13.420;2023-09-12T09:40:35;17.80;;;6.03;;
81209;SDS011;70685;52.496;13.420;2023-09-12T09:43:02;14.52;;;5.35;;
81209;SDS011;70685;52.496;13.420;2023-09-12T09:45:30;19.90;;;6.30;;
81209;SDS011;70685;52.496;13.420;2023-09-12T09:48:04;14.98;;;5.50;;
81209;SDS011;70685;52.496;13.420;2023-09-12T09:50:33;16.05;;;6.53;;
81209;SDS011;70685;52.496;13.420;2023-09-12T09:53:04;16.92;;;6.07;;
81209;SDS011;70685;52.496;13.420;2023-09-12T09:55:33;13.98;;;6.07;;
81209;SDS011;70685;52.496;13.420;2023-09-12T09:57:59;41.22;;;8.80;;
81209;SDS011;70685;52.496;13.420;2023-09-12T10:00:26;54.95;;;9.60;;
81209;SDS011;70685;52.496;13.420;2023-09-12T10:02:56;32.47;;;7.63;;
81209;SDS011;70685;52.496;13.420;2023-09-12T10:05:25;31.13;;;7.43;;
81209;SDS011;70685;52.496;13.420;2023-09-12T10:07:56;38.28;;;7.15;;
81209;SDS011;70685;52.496;13.420;2023-09-12T10:10:24;23.77;;;7.20;;
81209;SDS011;70685;52.496;13.420;2023-09-12T10:15:21;21.67;;;7.50;;
81209;SDS011;70685;52.496;13.420;2023-09-12T10:17:51;12.95;;;6.57;;
81209;SDS011;70685;52.496;13.420;2023-09-12T10:20:21;18.13;;;6.95;;
81209;SDS011;70685;52.496;13.420;2023-09-12T10:25:40;22.70;;;7.20;;
81209;SDS011;70685;52.496;13.420;2023-09-12T10:28:10;18.77;;;7.38;;
81209;SDS011;70685;52.496;13.420;2023-09-12T10:30:36;21.55;;;7.47;;
81209;SDS011;70685;52.496;13.420;2023-09-12T10:33:23;14.80;;;8.60;;
81209;SDS011;70685;52.496;13.420;2023-09-12T10:35:50;21.33;;;7.28;;
81209;SDS011;70685;52.496;13.420;2023-09-12T10:38:17;15.77;;;6.60;;
81209;SDS011;70685;52.496;13.420;2023-09-12T10:40:47;25.00;;;7.65;;
81209;SDS011;70685;52.496;13.420;2023-09-12T10:43:20;17.92;;;7.28;;
81209;SDS011;70685;52.496;13.420;2023-09-12T10:45:50;19.85;;;7.53;;
81209;SDS011;70685;52.496;13.420;2023-09-12T10:48:19;13.90;;;7.28;;
81209;SDS011;70685;52.496;13.420;2023-09-12T10:50:48;24.17;;;7.95;;
81209;SDS011;70685;52.496;13.420;2023-09-12T10:53:15;15.32;;;6.88;;
81209;SDS011;70685;52.496;13.420;2023-09-12T10:55:41;19.48;;;6.22;;
81209;SDS011;70685;52.496;13.420;2023-09-12T10:58:09;13.90;;;5.78;;
81209;SDS011;70685;52.496;13.420;2023-09-12T11:00:40;24.60;;;7.80;;
81209;SDS011;70685;52.496;13.420;2023-09-12T11:03:35;17.88;;;6.85;;
81209;SDS011;70685;52.496;13.420;2023-09-12T11:06:04;22.02;;;6.65;;
81209;SDS011;70685;52.496;13.420;2023-09-12T11:08:44;21.20;;;6.47;;
81209;SDS011;70685;52.496;13.420;2023-09-12T11:11:29;12.27;;;6.80;;
81209;SDS011;70685;52.496;13.420;2023-09-12T11:14:07;29.25;;;7.50;;
81209;SDS011;70685;52.496;13.420;2023-09-12T11:16:33;15.32;;;6.57;;
81209;SDS011;70685;52.496;13.420;2023-09-12T11:21:53;25.15;;;6.53;;
81209;SDS011;70685;52.496;13.420;2023-09-12T11:24:21;18.58;;;6.32;;
81209;SDS011;70685;52.496;13.420;2023-09-12T11:27:00;10.90;;;6.80;;
81209;SDS011;70685;52.496;13.420;2023-09-12T11:29:34;17.85;;;6.53;;
81209;SDS011;70685;52.496;13.420;2023-09-12T11:32:02;17.50;;;6.65;;
81209;SDS011;70685;52.496;13.420;2023-09-12T11:37:06;22.02;;;7.55;;
81209;SDS011;70685;52.496;13.420;2023-09-12T11:39:33;17.65;;;7.72;;
81209;SDS011;70685;52.496;13.420;2023-09-12T11:42:03;13.18;;;6.03;;
81209;SDS011;70685;52.496;13.420;2023-09-12T11:46:56;10.32;;;6.85;;
81209;SDS011;70685;52.496;13.420;2023-09-12T11:49:36;20.97;;;6.33;;
81209;SDS011;70685;52.496;13.420;2023-09-12T11:52:02;13.70;;;6.40;;
81209;SDS011;70685;52.496;13.420;2023-09-12T11:54:31;14.07;;;6.60;;
81209;SDS011;70685;52.496;13.420;2023-09-12T11:56:59;10.95;;;5.47;;
81209;SDS011;70685;52.496;13.420;2023-09-12T11:59:29;11.38;;;6.03;;
81209;SDS011;70685;52.496;13.420;2023-09-12T12:02:00;15.02;;;5.80;;
81209;SDS011;70685;52.496;13.420;2023-09-12T12:04:26;10.05;;;5.95;;
81209;SDS011;70685;52.496;13.420;2023-09-12T12:06:58;12.20;;;5.68;;
81209;SDS011;70685;52.496;13.420;2023-09-12T12:09:24;12.05;;;5.30;;
81209;SDS011;70685;52.496;13.420;2023-09-12T12:11:49;17.33;;;5.85;;
81209;SDS011;70685;52.496;13.420;2023-09-12T12:14:18;13.73;;;6.00;;
81209;SDS011;70685;52.496;13.420;2023-09-12T12:16:47;11.48;;;5.97;;
81209;SDS011;70685;52.496;13.420;2023-09-12T12:19:13;17.55;;;5.60;;
81209;SDS011;70685;52.496;13.420;2023-09-12T12:21:44;10.73;;;4.97;;
81209;SDS011;70685;52.496;13.420;2023-09-12T12:24:18;14.88;;;5.05;;
81209;SDS011;70685;52.496;13.420;2023-09-12T12:26:48;13.70;;;5.15;;
81209;SDS011;70685;52.496;13.420;2023-09-12T12:29:13;11.52;;;5.35;;
81209;SDS011;70685;52.496;13.420;2023-09-12T12:31:39;10.07;;;4.90;;
81209;SDS011;70685;52.496;13.420;2023-09-12T12:34:05;12.90;;;6.38;;
81209;SDS011;70685;52.496;13.420;2023-09-12T12:36:31;12.63;;;6.43;;
81209;SDS011;70685;52.496;13.420;2023-09-12T12:38:57;10.10;;;5.05;;
81209;SDS011;70685;52.496;13.420;2023-09-12T12:41:27;10.82;;;5.15;;
81209;SDS011;70685;52.496;13.420;2023-09-12T12:43:53;8.65;;;4.88;;
81209;SDS011;70685;52.496;13.420;2023-09-12T12:46:28;13.13;;;6.53;;
81209;SDS011;70685;52.496;13.420;2023-09-12T12:48:54;18.77;;;5.00;;
81209;SDS011;70685;52.496;13.420;2023-09-12T12:51:21;14.63;;;5.15;;
81209;SDS011;70685;52.496;13.420;2023-09-12T12:53:51;11.27;;;5.50;;
81209;SDS011;70685;52.496;13.420;2023-09-12T12:56:28;10.82;;;4.57;;
81209;SDS011;70685;52.496;13.420;2023-09-12T12:58:58;13.05;;;5.32;;
81209;SDS011;70685;52.496;13.420;2023-09-12T13:01:27;11.32;;;4.68;;
81209;SDS011;70685;52.496;13.420;2023-09-12T13:03:53;11.30;;;4.95;;
81209;SDS011;70685;52.496;13.420;2023-09-12T13:08:47;15.45;;;5.97;;
81209;SDS011;70685;52.496;13.420;2023-09-12T13:11:16;8.45;;;5.72;;
81209;SDS011;70685;52.496;13.420;2023-09-12T13:13:42;11.93;;;5.05;;
81209;SDS011;70685;52.496;13.420;2023-09-12T13:16:12;12.63;;;4.93;;
81209;SDS011;70685;52.496;13.420;2023-09-12T13:18:40;10.57;;;4.93;;
81209;SDS011;70685;52.496;13.420;2023-09-12T13:21:07;10.57;;;4.40;;
81209;SDS011;70685;52.496;13.420;2023-09-12T13:23:38;10.50;;;4.53;;
81209;SDS011;70685;52.496;13.420;2023-09-12T13:26:07;19.25;;;4.75;;
81209;SDS011;70685;52.496;13.420;2023-09-12T13:28:36;5.78;;;4.15;;
81209;SDS011;70685;52.496;13.420;2023-09-12T13:31:04;16.73;;;5.13;;
81209;SDS011;70685;52.496;13.420;2023-09-12T13:33:30;12.95;;;5.57;;
81209;SDS011;70685;52.496;13.420;2023-09-12T13:35:56;9.25;;;5.05;;
81209;SDS011;70685;52.496;13.420;2023-09-12T13:38:22;13.20;;;4.60;;
81209;SDS011;70685;52.496;13.420;2023-09-12T13:40:52;11.05;;;4.50;;
81209;SDS011;70685;52.496;13.420;2023-09-12T13:43:18;11.82;;;5.07;;
81209;SDS011;70685;52.496;13.420;2023-09-12T13:45:43;13.38;;;5.00;;
81209;SDS011;70685;52.496;13.420;2023-09-12T13:48:09;19.63;;;5.20;;
81209;SDS011;70685;52.496;13.420;2023-09-12T13:50:37;16.13;;;4.40;;
81209;SDS011;70685;52.496;13.420;2023-09-12T13:53:03;14.45;;;5.63;;
81209;SDS011;70685;52.496;13.420;2023-09-12T13:55:30;17.40;;;5.18;;
81209;SDS011;70685;52.496;13.420;2023-09-12T13:57:55;7.05;;;4.85;;
81209;SDS011;70685;52.496;13.420;2023-09-12T14:00:26;8.93;;;4.88;;
81209;SDS011;70685;52.496;13.420;2023-09-12T14:02:51;11.68;;;5.82;;
81209;SDS011;70685;52.496;13.420;2023-09-12T14:05:17;16.63;;;5.38;;
81209;SDS011;70685;52.496;13.420;2023-09-12T14:07:43;29.55;;;8.63;;
81209;SDS011;70685;52.496;13.420;2023-09-12T14:12:38;29.52;;;6.55;;
81209;SDS011;70685;52.496;13.420;2023-09-12T14:15:04;25.42;;;6.95;;
81209;SDS011;70685;52.496;13.420;2023-09-12T14:17:31;100.47;;;13.68;;
81209;SDS011;70685;52.496;13.420;2023-09-12T14:19:57;63.72;;;10.00;;
81209;SDS011;70685;52.496;13.420;2023-09-12T14:22:25;45.25;;;8.23;;
81209;SDS011;70685;52.496;13.420;2023-09-12T14:24:54;54.88;;;10.43;;
81209;SDS011;70685;52.496;13.420;2023-09-12T14:27:23;21.13;;;6.15;;
81209;SDS011;70685;52.496;13.420;2023-09-12T14:29:49;29.35;;;6.70;;
81209;SDS011;70685;52.496;13.420;2023-09-12T14:32:18;24.58;;;6.43;;
81209;SDS011;70685;52.496;13.420;2023-09-12T14:34:43;26.00;;;7.93;;
81209;SDS011;70685;52.496;13.420;2023-09-12T14:37:12;28.27;;;7.53;;
81209;SDS011;70685;52.496;13.420;2023-09-12T14:39:40;21.58;;;7.05;;
81209;SDS011;70685;52.496;13.420;2023-09-12T14:42:06;28.65;;;6.82;;
81209;SDS011;70685;52.496;13.420;2023-09-12T14:44:34;22.80;;;5.35;;
81209;SDS011;70685;52.496;13.420;2023-09-12T14:47:00;22.67;;;6.35;;
81209;SDS011;70685;52.496;13.420;2023-09-12T14:49:28;15.73;;;6.30;;
81209;SDS011;70685;52.496;13.420;2023-09-12T14:51:54;17.90;;;6.20;;
81209;SDS011;70685;52.496;13.420;2023-09-12T14:54:24;16.33;;;5.72;;